createdAt,value
2022-09-01T00:01:41.595Z,15.40
2022-09-01T00:05:46.321Z,15.40
2022-09-01T00:09:49.953Z,15.40
2022-09-01T00:13:54.136Z,15.40
2022-09-01T00:17:58.853Z,15.40
2022-09-01T00:22:02.629Z,15.30
2022-09-01T00:26:06.625Z,15.30
2022-09-01T00:30:11.157Z,15.30
2022-09-01T00:34:16.235Z,15.20
2022-09-01T00:38:20.520Z,15.20
2022-09-01T00:42:24.568Z,15.20
2022-09-01T00:46:30.685Z,15.20
2022-09-01T00:50:35.620Z,15.10
2022-09-01T00:54:44.854Z,15.00
2022-09-01T00:58:48.230Z,15.00
2022-09-01T01:02:56.205Z,15.00
2022-09-01T01:07:03.240Z,15.00
2022-09-01T01:11:09.738Z,15.00
2022-09-01T01:15:14.603Z,15.00
2022-09-01T01:19:39.143Z,15.00
2022-09-01T01:23:51.101Z,14.90
2022-09-01T01:28:06.043Z,15.00
2022-09-01T01:32:13.460Z,14.90
2022-09-01T01:36:32.517Z,14.90
2022-09-01T01:40:36.253Z,14.80
2022-09-01T01:44:42.797Z,14.80
2022-09-01T01:48:47.229Z,14.80
2022-09-01T01:52:55.166Z,14.90
2022-09-01T01:57:04.634Z,15.00
2022-09-01T02:01:11.037Z,14.90
2022-09-01T02:05:17.121Z,14.90
2022-09-01T02:09:23.433Z,14.90
2022-09-01T02:13:31.280Z,14.90
2022-09-01T02:17:36.227Z,14.90
2022-09-01T02:21:50.112Z,14.90
2022-09-01T02:26:15.476Z,14.90
2022-09-01T02:30:19.622Z,14.90
2022-09-01T02:34:27.831Z,14.80
2022-09-01T02:38:33.864Z,14.80
2022-09-01T02:42:41.005Z,14.70
2022-09-01T02:46:46.119Z,14.70
2022-09-01T02:50:50.831Z,14.60
2022-09-01T02:54:55.741Z,14.70
2022-09-01T02:59:00.408Z,14.70
2022-09-01T03:03:04.946Z,14.60
2022-09-01T03:07:10.732Z,14.70
2022-09-01T03:11:14.271Z,14.60
2022-09-01T03:15:17.646Z,14.70
2022-09-01T03:19:21.645Z,14.60
2022-09-01T03:23:28.283Z,14.60
2022-09-01T03:27:31.857Z,14.60
2022-09-01T03:31:35.701Z,14.70
2022-09-01T03:35:39.492Z,14.80
2022-09-01T03:39:44.631Z,14.70
2022-09-01T03:43:49.024Z,14.70
2022-09-01T03:47:52.941Z,14.70
2022-09-01T03:51:57.682Z,14.70
2022-09-01T03:56:04.563Z,14.60
2022-09-01T04:00:15.732Z,14.50
2022-09-01T04:04:20.622Z,14.40
2022-09-01T04:08:33.075Z,14.20
2022-09-01T04:12:38.939Z,14.30
2022-09-01T04:16:59.792Z,14.30
2022-09-01T04:21:03.290Z,14.20
2022-09-01T04:25:07.375Z,14.10
2022-09-01T04:29:12.940Z,14.00
2022-09-01T04:33:17.575Z,13.90
2022-09-01T04:37:24.242Z,13.90
2022-09-01T04:41:32.290Z,14.00
2022-09-01T04:45:38.160Z,14.00
2022-09-01T04:49:45.656Z,14.00
2022-09-01T04:53:49.894Z,14.00
2022-09-01T04:57:53.351Z,13.90
2022-09-01T05:02:00.396Z,13.90
2022-09-01T05:06:04.119Z,13.80
2022-09-01T05:10:08.478Z,13.70
2022-09-01T05:14:12.605Z,13.60
2022-09-01T05:18:23.527Z,13.60
2022-09-01T05:22:27.163Z,13.60
2022-09-01T05:26:35.007Z,13.70
2022-09-01T05:30:40.542Z,13.70
2022-09-01T05:34:46.264Z,13.70
2022-09-01T05:38:52.486Z,13.70
2022-09-01T05:42:56.221Z,13.70
2022-09-01T05:47:00.999Z,13.80
2022-09-01T05:51:17.616Z,13.70
2022-09-01T05:55:27.853Z,13.70
2022-09-01T05:59:32.838Z,13.80
2022-09-01T06:03:38.260Z,13.90
2022-09-01T06:07:44.450Z,14.10
2022-09-01T06:11:48.365Z,14.20
2022-09-01T06:15:53.804Z,14.40
2022-09-01T06:19:58.690Z,14.60
2022-09-01T06:24:07.229Z,14.80
2022-09-01T06:28:12.430Z,15.00
2022-09-01T06:32:17.162Z,15.10
2022-09-01T06:36:21.597Z,15.30
2022-09-01T06:40:26.619Z,15.60
2022-09-01T06:44:32.516Z,16.00
2022-09-01T06:48:35.921Z,16.20
2022-09-01T07:01:30.637Z,17.10
2022-09-01T07:10:17.706Z,17.90
2022-09-01T07:14:23.230Z,18.10
2022-09-01T07:18:28.644Z,18.40
2022-09-01T07:22:36.095Z,18.40
2022-09-01T07:35:37.204Z,18.80
2022-09-01T07:42:30.578Z,18.70
2022-09-01T07:44:08.456Z,19.00
2022-09-01T07:48:35.984Z,19.10
2022-09-01T07:52:43.321Z,18.80
2022-09-01T07:56:47.492Z,18.40
2022-09-01T08:00:51.536Z,18.40
2022-09-01T08:04:56.638Z,18.60
2022-09-01T08:09:01.317Z,18.70
2022-09-01T08:13:06.030Z,18.70
2022-09-01T08:17:33.130Z,19.00
2022-09-01T08:21:35.533Z,19.20
2022-09-01T08:25:39.228Z,19.40
2022-09-01T08:29:43.722Z,19.60
2022-09-01T08:33:48.752Z,19.60
2022-09-01T08:37:54.248Z,20.00
2022-09-01T08:42:06.922Z,20.20
2022-09-01T08:46:18.362Z,20.70
2022-09-01T08:50:22.358Z,22.50
2022-09-01T08:54:33.625Z,23.90
2022-09-01T08:58:37.067Z,24.70
2022-09-01T09:02:58.580Z,25.30
2022-09-01T09:07:08.726Z,26.10
2022-09-01T09:11:24.219Z,27.00
2022-09-01T09:15:32.636Z,27.50
2022-09-01T09:19:40.648Z,28.50
2022-09-01T09:23:47.770Z,30.10
2022-09-01T09:28:01.002Z,29.80
2022-09-01T09:32:22.529Z,29.50
2022-09-01T09:36:33.793Z,29.30
2022-09-01T09:41:06.671Z,29.30
2022-09-01T09:45:04.592Z,27.40
2022-09-01T09:49:14.665Z,26.20
2022-09-01T09:53:27.867Z,26.20
2022-09-01T09:57:33.419Z,25.50
2022-09-01T10:01:38.201Z,24.50
2022-09-01T10:05:48.003Z,24.50
2022-09-01T10:09:52.600Z,26.00
2022-09-01T10:13:56.438Z,27.90
2022-09-01T10:22:33.057Z,28.50
2022-09-01T10:26:40.093Z,27.80
2022-09-01T10:30:46.987Z,26.30
2022-09-01T10:34:52.117Z,26.10
2022-09-01T10:39:04.641Z,25.90
2022-09-01T10:43:37.522Z,28.30
2022-09-01T10:47:41.725Z,26.90
2022-09-01T10:51:55.229Z,25.20
2022-09-01T10:56:19.228Z,26.30
2022-09-01T11:05:19.828Z,27.60
2022-09-01T11:09:28.177Z,28.60
2022-09-01T11:13:38.455Z,27.30
2022-09-01T11:17:57.518Z,26.20
2022-09-01T11:22:15.308Z,26.00
2022-09-01T11:26:48.016Z,24.90
2022-09-01T11:30:55.793Z,23.70
2022-09-01T11:35:01.465Z,23.40
2022-09-01T11:39:08.714Z,23.90
2022-09-01T11:43:17.669Z,23.70
2022-09-01T11:47:26.731Z,23.20
2022-09-01T11:51:39.097Z,24.20
2022-09-01T11:55:46.594Z,24.30
2022-09-01T11:59:53.867Z,26.00
2022-09-01T12:04:00.012Z,28.30
2022-09-01T12:08:07.325Z,28.50
2022-09-01T12:12:32.379Z,26.30
2022-09-01T12:16:40.266Z,24.90
2022-09-01T12:20:43.680Z,23.60
2022-09-01T12:24:48.758Z,22.60
2022-09-01T12:28:53.234Z,22.00
2022-09-01T12:37:25.053Z,21.40
2022-09-01T12:41:36.070Z,21.20
2022-09-01T12:45:41.709Z,21.10
2022-09-01T12:49:52.116Z,21.20
2022-09-01T12:53:59.119Z,21.10
2022-09-01T12:58:05.332Z,21.40
2022-09-01T13:02:28.091Z,21.40
2022-09-01T13:06:33.482Z,21.50
2022-09-01T13:10:40.029Z,21.30
2022-09-01T13:14:43.427Z,21.20
2022-09-01T13:23:12.873Z,21.60
2022-09-01T13:27:23.654Z,21.50
2022-09-01T13:31:29.651Z,21.40
2022-09-01T13:35:34.378Z,21.20
2022-09-01T13:39:39.322Z,21.20
2022-09-01T13:48:17.526Z,21.30
2022-09-01T13:52:10.981Z,21.30
2022-09-01T13:56:15.801Z,21.30
2022-09-01T14:00:24.521Z,21.30
2022-09-01T14:04:27.983Z,21.40
2022-09-01T14:08:33.501Z,21.40
2022-09-01T14:12:39.713Z,21.40
2022-09-01T14:16:43.162Z,21.40
2022-09-01T14:20:49.022Z,21.60
2022-09-01T14:24:52.476Z,21.90
2022-09-01T14:28:57.173Z,21.90
2022-09-01T14:33:01.685Z,21.80
2022-09-01T14:37:05.707Z,21.90
2022-09-01T14:41:09.199Z,21.20
2022-09-01T14:45:16.261Z,21.00
2022-09-01T14:49:22.519Z,20.90
2022-09-01T14:53:26.190Z,20.80
2022-09-01T14:57:38.005Z,21.10
2022-09-01T15:01:43.611Z,21.00
2022-09-01T15:05:46.982Z,21.10
2022-09-01T15:09:50.361Z,21.30
2022-09-01T15:13:53.737Z,21.30
2022-09-01T15:17:58.534Z,21.50
2022-09-01T15:22:01.851Z,21.50
2022-09-01T15:26:05.339Z,21.60
2022-09-01T15:30:14.666Z,21.80
2022-09-01T15:34:19.751Z,22.00
2022-09-01T15:38:27.197Z,22.00
2022-09-01T15:42:36.075Z,21.80
2022-09-01T15:46:41.301Z,21.10
2022-09-01T15:50:46.262Z,20.80
2022-09-01T15:54:49.591Z,20.30
2022-09-01T15:59:01.641Z,20.10
2022-09-01T16:03:05.962Z,20.00
2022-09-01T16:07:11.040Z,20.00
2022-09-01T16:11:14.328Z,19.90
2022-09-01T16:15:20.024Z,19.80
2022-09-01T16:19:33.646Z,19.70
2022-09-01T16:23:42.678Z,19.50
2022-09-01T16:27:47.604Z,19.40
2022-09-01T16:31:55.165Z,19.40
2022-09-01T16:36:11.586Z,19.30
2022-09-01T16:40:29.977Z,19.30
2022-09-01T16:44:44.976Z,19.10
2022-09-01T16:48:56.063Z,18.90
2022-09-01T16:53:20.597Z,18.70
2022-09-01T16:57:35.155Z,18.50
2022-09-01T17:01:48.970Z,18.30
2022-09-01T17:05:57.510Z,18.20
2022-09-01T17:10:06.533Z,18.10
2022-09-01T17:14:27.700Z,18.00
2022-09-01T17:18:35.216Z,17.90
2022-09-01T17:22:39.927Z,17.70
2022-09-01T17:26:50.907Z,17.60
2022-09-01T17:31:01.934Z,17.40
2022-09-01T17:35:15.231Z,17.30
2022-09-01T17:39:37.087Z,17.20
2022-09-01T17:43:53.943Z,17.00
2022-09-01T17:48:09.215Z,17.00
2022-09-01T17:52:19.345Z,16.90
2022-09-01T17:56:37.362Z,16.80
2022-09-01T18:00:45.431Z,16.70
2022-09-01T18:05:01.155Z,16.70
2022-09-01T18:09:06.461Z,16.60
2022-09-01T18:13:25.893Z,16.60
2022-09-01T18:17:43.644Z,16.60
2022-09-01T18:21:54.384Z,16.40
2022-09-01T18:26:03.976Z,16.40
2022-09-01T18:30:08.664Z,16.40
2022-09-01T18:34:24.778Z,16.30
2022-09-01T18:38:44.090Z,16.30
2022-09-01T18:42:57.338Z,16.20
2022-09-01T18:47:05.570Z,16.20
2022-09-01T18:51:17.220Z,16.20
2022-09-01T18:55:28.170Z,16.10
2022-09-01T18:59:55.384Z,16.10
2022-09-01T19:04:10.035Z,16.00
2022-09-01T19:08:25.593Z,15.90
2022-09-01T19:12:39.320Z,16.00
2022-09-01T19:16:56.574Z,15.90
2022-09-01T19:21:07.502Z,15.80
2022-09-01T19:25:31.174Z,15.80
2022-09-01T19:29:45.718Z,15.80
2022-09-01T19:33:52.104Z,15.70
2022-09-01T19:37:55.807Z,15.70
2022-09-01T19:42:05.463Z,15.70
2022-09-01T19:46:23.233Z,15.70
2022-09-01T19:50:33.043Z,15.70
2022-09-01T19:54:44.902Z,15.60
2022-09-01T19:58:57.808Z,15.60
2022-09-01T20:03:09.409Z,15.50
2022-09-01T20:07:23.818Z,15.50
2022-09-01T20:11:44.354Z,15.50
2022-09-01T20:15:52.883Z,15.40
2022-09-01T20:20:07.627Z,15.30
2022-09-01T20:24:19.054Z,15.40
2022-09-01T20:28:32.097Z,15.20
2022-09-01T20:32:42.498Z,15.20
2022-09-01T20:36:51.655Z,15.20
2022-09-01T20:40:57.288Z,15.20
2022-09-01T20:45:04.328Z,15.20
2022-09-01T20:49:07.632Z,15.20
2022-09-01T20:53:24.267Z,15.20
2022-09-01T20:57:38.844Z,15.10
2022-09-01T21:01:48.621Z,15.10
2022-09-01T21:05:57.695Z,15.10
2022-09-01T21:10:21.020Z,15.00
2022-09-01T21:14:36.006Z,14.90
2022-09-01T21:18:49.665Z,14.80
2022-09-01T21:22:55.278Z,14.80
2022-09-01T21:27:03.023Z,14.80
2022-09-01T21:31:09.037Z,14.70
2022-09-01T21:35:14.362Z,14.60
2022-09-01T21:39:18.525Z,14.70
2022-09-01T21:43:26.524Z,14.70
2022-09-01T21:47:30.272Z,14.80
2022-09-01T21:51:34.069Z,14.70
2022-09-01T21:55:37.950Z,14.80
2022-09-01T21:59:42.859Z,14.80
2022-09-01T22:03:46.077Z,14.70
2022-09-01T22:07:49.627Z,14.60
2022-09-01T22:11:53.009Z,14.60
2022-09-01T22:15:57.627Z,14.60
2022-09-01T22:20:02.193Z,14.60
2022-09-01T22:24:06.068Z,14.60
2022-09-01T22:28:09.575Z,14.50
2022-09-01T22:32:14.233Z,14.50
2022-09-01T22:36:22.839Z,14.50
2022-09-01T22:40:26.112Z,14.50
2022-09-01T22:44:29.366Z,14.50
2022-09-01T22:48:34.008Z,14.40
2022-09-01T22:52:37.697Z,14.50
2022-09-01T22:56:42.442Z,14.50
2022-09-01T23:00:48.023Z,14.40
2022-09-01T23:04:52.967Z,14.30
2022-09-01T23:08:56.564Z,14.40
2022-09-01T23:13:00.168Z,14.40
2022-09-01T23:17:03.476Z,14.30
2022-09-01T23:21:11.717Z,14.30
2022-09-01T23:25:17.059Z,14.30
2022-09-01T23:29:20.448Z,14.20
2022-09-01T23:33:25.405Z,14.30
2022-09-01T23:37:30.575Z,14.30
2022-09-01T23:41:35.782Z,14.30
2022-09-01T23:45:43.138Z,14.30
2022-09-01T23:49:46.553Z,14.20
2022-09-01T23:53:51.870Z,14.10
2022-09-01T23:57:55.159Z,14.20
